Time;durP1;ratioP1;P1;durP2;ratioP2;P2;SDS_P1;SDS_P2;PMS_P1;PMS_P2;Temp;Humidity;BMP_temperature;BMP_pressure;BME280_temperature;BME280_humidity;BME280_pressure;Samples;Min_cycle;Max_cycle;Signal;HPM_P1;HPM_P2
2022/04/14 00:00:56;;;;;;;26.98;16.02;;;17.20;16.80;;;;;;5051219;28;20040;-40
2022/04/14 00:03:21;;;;;;;25.40;16.70;;;17.20;16.60;;;;;;5032697;28;20505;-40
2022/04/14 00:05:47;;;;;;;21.08;14.52;;;17.10;16.60;;;;;;5051446;28;20040;-40
2022/04/14 00:08:13;;;;;;;23.48;15.70;;;17.10;16.90;;;;;;5052103;28;20343;-40
2022/04/14 00:10:38;;;;;;;24.23;14.63;;;17.10;16.70;;;;;;5051494;28;20064;-40
2022/04/14 00:13:04;;;;;;;20.98;15.23;;;17.10;17.10;;;;;;5051529;28;20108;-40
2022/04/14 00:15:29;;;;;;;23.48;15.23;;;17.10;17.20;;;;;;5059195;28;20024;-40
2022/04/14 00:17:55;;;;;;;24.25;16.45;;;17.00;17.20;;;;;;5058213;28;20430;-40
2022/04/14 00:20:22;;;;;;;26.52;16.45;;;17.00;17.50;;;;;;5072031;28;20032;-40
2022/04/14 00:22:47;;;;;;;25.92;17.13;;;17.00;17.50;;;;;;5069755;28;20025;-40
2022/04/14 00:25:13;;;;;;;22.70;15.52;;;17.00;17.40;;;;;;5069086;28;20687;-40
2022/04/14 00:27:39;;;;;;;30.05;17.42;;;17.00;17.60;;;;;;5065963;28;20446;-40
2022/04/14 00:30:05;;;;;;;26.73;17.90;;;16.90;17.50;;;;;;5036157;28;20057;-40
2022/04/14 00:32:31;;;;;;;24.73;16.95;;;16.90;17.50;;;;;;5058011;28;20029;-40
2022/04/14 00:34:57;;;;;;;26.52;17.05;;;16.90;17.60;;;;;;5071740;28;20024;-40
2022/04/14 00:37:23;;;;;;;24.58;16.77;;;;;;;;;;5068233;28;20044;-40
2022/04/14 00:39:50;;;;;;;26.88;17.05;;;16.90;17.50;;;;;;5071715;28;20426;-40
2022/04/14 00:42:16;;;;;;;27.05;16.88;;;16.80;18.20;;;;;;5067733;28;20044;-40
2022/04/14 00:44:42;;;;;;;25.08;16.33;;;16.80;17.90;;;;;;5053850;28;20024;-40
2022/04/14 00:47:10;;;;;;;27.20;16.95;;;16.80;17.90;;;;;;5069696;28;20120;-40
2022/04/14 00:49:36;;;;;;;28.13;16.38;;;16.80;18.00;;;;;;5071713;28;20107;-40
2022/04/14 00:52:03;;;;;;;25.42;16.52;;;16.80;18.00;;;;;;5069484;28;20072;-41
2022/04/14 00:54:30;;;;;;;27.13;16.50;;;16.70;18.10;;;;;;5063514;28;20016;-40
2022/04/14 00:57:01;;;;;;;25.08;16.02;;;16.70;17.90;;;;;;5071617;28;20056;-40
2022/04/14 00:59:27;;;;;;;28.75;16.58;;;16.70;17.90;;;;;;5069269;28;20393;-40
2022/04/14 01:01:57;;;;;;;24.10;15.65;;;16.70;18.00;;;;;;5053602;28;20162;-40
2022/04/14 01:04:24;;;;;;;27.33;16.65;;;16.70;17.90;;;;;;5064430;28;20041;-40
2022/04/14 01:06:50;;;;;;;25.25;14.77;;;16.70;18.10;;;;;;5051505;28;20032;-40
2022/04/14 01:09:19;;;;;;;22.77;15.18;;;16.60;18.10;;;;;;5046158;28;20048;-40
2022/04/14 01:11:51;;;;;;;25.40;16.05;;;16.70;18.10;;;;;;5031292;28;20116;-40
2022/04/14 01:14:33;;;;;;;24.63;17.05;;;16.60;18.50;;;;;;5036958;28;20032;-40
2022/04/14 01:17:04;;;;;;;25.92;16.65;;;16.50;18.00;;;;;;5036620;28;20032;-40
2022/04/14 01:19:29;;;;;;;19.95;14.60;;;16.60;18.20;;;;;;5053995;28;20094;-41
2022/04/14 01:22:23;;;;;;;26.38;16.45;;;16.60;18.20;;;;;;5054745;28;20021;-41
2022/04/14 01:24:54;;;;;;;22.45;16.45;;;16.60;18.20;;;;;;5075366;28;20446;-41
2022/04/14 01:27:19;;;;;;;24.27;14.32;;;16.50;18.20;;;;;;5073136;28;20111;-41
2022/04/14 01:29:46;;;;;;;24.00;15.57;;;16.50;18.20;;;;;;5056970;28;20087;-41
2022/04/14 01:32:12;;;;;;;23.67;15.95;;;16.50;18.30;;;;;;5071136;28;20120;-41
2022/04/14 01:34:37;;;;;;;24.08;15.88;;;16.50;18.40;;;;;;5054948;28;20104;-41
2022/04/14 01:37:03;;;;;;;24.27;15.30;;;16.50;18.20;;;;;;5054384;28;20428;-41
2022/04/14 01:39:29;;;;;;;24.77;15.52;;;16.50;18.20;;;;;;5064982;28;20038;-41
2022/04/14 01:41:55;;;;;;;23.92;14.98;;;16.40;18.10;;;;;;5034663;28;20498;-41
2022/04/14 01:44:21;;;;;;;22.02;14.88;;;16.40;18.10;;;;;;5036443;28;20025;-41
2022/04/14 01:46:46;;;;;;;17.48;13.95;;;16.40;18.10;;;;;;5055163;28;20032;-41
2022/04/14 01:49:12;;;;;;;22.20;13.75;;;16.40;17.80;;;;;;5071287;28;20040;-41
2022/04/14 01:51:38;;;;;;;23.15;14.68;;;16.40;18.20;;;;;;5073009;28;20058;-41
2022/04/14 01:54:05;;;;;;;23.10;14.23;;;16.30;18.80;;;;;;5039707;28;20037;-40
2022/04/14 01:56:30;;;;;;;22.38;14.77;;;16.40;19.30;;;;;;5034889;28;20384;-40
2022/04/14 01:58:57;;;;;;;24.00;15.50;;;16.40;24.10;;;;;;5050034;28;20098;-40
2022/04/14 02:01:23;;;;;;;22.45;15.93;;;16.30;20.60;;;;;;5054494;28;20116;-40
2022/04/14 02:03:49;;;;;;;26.77;16.50;;;16.40;27.50;;;;;;5052867;28;20095;-41
2022/04/14 02:06:15;;;;;;;22.02;16.02;;;16.40;20.30;;;;;;5054403;28;20457;-41
2022/04/14 02:08:42;;;;;;;25.20;15.52;;;16.40;28.80;;;;;;5066560;28;20025;-40
2022/04/14 02:11:08;;;;;;;23.42;15.82;;;16.40;27.80;;;;;;5074271;28;20021;-40
2022/04/14 02:13:34;;;;;;;25.83;15.60;;;16.40;24.20;;;;;;5051457;28;20442;-40
2022/04/14 02:16:00;;;;;;;27.42;16.23;;;16.30;26.70;;;;;;5034329;28;20025;-40
2022/04/14 02:18:26;;;;;;;22.58;15.00;;;16.30;28.00;;;;;;5047881;28;20036;-40
2022/04/14 02:20:52;;;;;;;21.17;15.52;;;16.30;29.50;;;;;;5052714;28;20043;-40
2022/04/14 02:23:19;;;;;;;25.95;16.23;;;16.20;19.90;;;;;;5041710;28;20456;-40
2022/04/14 02:25:45;;;;;;;25.25;16.80;;;16.30;20.40;;;;;;5071516;28;20033;-40
2022/04/14 02:28:11;;;;;;;24.38;16.77;;;16.20;20.90;;;;;;5055648;28;20044;-41
2022/04/14 02:30:37;;;;;;;23.92;16.90;;;16.10;21.40;;;;;;5044133;28;20486;-41
2022/04/14 02:33:03;;;;;;;22.85;15.88;;;;;;;;;;5039550;28;20032;-41
2022/04/14 02:35:29;;;;;;;25.63;17.30;;;16.00;20.30;;;;;;5043702;28;20028;-40
2022/04/14 02:37:57;;;;;;;27.58;17.52;;;16.10;20.40;;;;;;5024135;28;21044;-41
2022/04/14 02:40:24;;;;;;;20.13;14.95;;;16.10;19.90;;;;;;5053785;28;20033;-40
2022/04/14 02:42:50;;;;;;;24.60;15.15;;;16.10;20.10;;;;;;5039284;28;20095;-40
2022/04/14 02:45:16;;;;;;;23.48;14.60;;;16.00;20.40;;;;;;5035588;28;20390;-41
2022/04/14 02:47:41;;;;;;;22.98;15.30;;;16.00;20.30;;;;;;5052720;28;20112;-40
2022/04/14 02:50:08;;;;;;;23.55;15.43;;;16.10;19.80;;;;;;5063259;28;20037;-40
2022/04/14 02:52:34;;;;;;;24.20;15.27;;;16.10;20.50;;;;;;5059425;28;20339;-40
2022/04/14 02:54:59;;;;;;;25.27;15.02;;;16.10;19.60;;;;;;5052065;28;20032;-41
2022/04/14 02:57:25;;;;;;;20.55;14.98;;;16.10;19.80;;;;;;5053463;28;20115;-41
2022/04/14 02:59:51;;;;;;;20.60;14.13;;;16.10;19.70;;;;;;5059095;28;20485;-43
2022/04/14 03:02:16;;;;;;;22.95;14.82;;;16.10;19.30;;;;;;5073109;28;20384;-40
2022/04/14 03:04:42;;;;;;;19.88;13.93;;;16.00;19.50;;;;;;5069398;28;20033;-40
2022/04/14 03:07:08;;;;;;;19.80;14.88;;;16.00;19.20;;;;;;5072457;28;20025;-40
2022/04/14 03:09:33;;;;;;;23.42;13.93;;;16.00;19.00;;;;;;5070959;28;20493;-40
2022/04/14 03:11:59;;;;;;;23.92;15.20;;;16.00;19.00;;;;;;5052328;28;20079;-40
2022/04/14 03:14:25;;;;;;;21.45;14.40;;;16.00;19.30;;;;;;5033558;28;20041;-40
2022/04/14 03:16:50;;;;;;;19.88;13.73;;;16.00;19.40;;;;;;5071111;28;20043;-40
2022/04/14 03:19:16;;;;;;;24.98;15.40;;;15.90;19.50;;;;;;5073053;28;20093;-40
2022/04/14 03:21:42;;;;;;;22.30;14.40;;;15.90;20.20;;;;;;5057560;28;20040;-40
2022/04/14 03:24:07;;;;;;;22.77;13.77;;;15.90;20.40;;;;;;5072911;28;20027;-40
2022/04/14 03:26:33;;;;;;;20.52;14.63;;;15.90;20.10;;;;;;5070583;28;20373;-40
2022/04/14 03:28:59;;;;;;;19.88;13.95;;;15.90;19.90;;;;;;5072690;28;20021;-41
2022/04/14 03:31:24;;;;;;;25.05;14.25;;;15.90;19.90;;;;;;5068508;28;20490;-41
2022/04/14 03:33:50;;;;;;;21.20;13.43;;;15.90;19.80;;;;;;5034832;28;20029;-40
2022/04/14 03:36:16;;;;;;;23.63;14.13;;;15.80;20.10;;;;;;5052090;28;20060;-41
2022/04/14 03:38:41;;;;;;;21.30;14.48;;;15.80;20.10;;;;;;5035158;28;20073;-41
2022/04/14 03:41:07;;;;;;;25.60;17.30;;;15.90;20.00;;;;;;5051527;28;20041;-40
2022/04/14 03:43:36;;;;;;;24.15;16.30;;;15.80;20.70;;;;;;5072334;28;20079;-41
2022/04/14 03:46:03;;;;;;;24.13;17.17;;;15.80;21.10;;;;;;5072536;28;20028;-40
2022/04/14 03:48:29;;;;;;;25.95;17.70;;;15.70;21.30;;;;;;5051559;28;20544;-41
2022/04/14 03:50:55;;;;;;;25.08;18.10;;;15.70;21.50;;;;;;5072176;28;20044;-41
2022/04/14 03:53:21;;;;;;;27.42;18.15;;;15.70;21.80;;;;;;5052955;28;20124;-40
2022/04/14 03:55:47;;;;;;;26.35;18.02;;;15.80;21.70;;;;;;5052461;28;20059;-40
2022/04/14 03:58:14;;;;;;;28.02;19.23;;;15.80;22.00;;;;;;5051490;28;20056;-41
2022/04/14 04:00:40;;;;;;;24.85;18.45;;;15.80;21.70;;;;;;5052410;28;20115;-40
2022/04/14 04:03:09;;;;;;;25.92;18.85;;;15.70;22.10;;;;;;5050119;28;20150;-40
2022/04/14 04:05:35;;;;;;;26.45;18.42;;;15.70;22.40;;;;;;5050924;28;20359;-40
2022/04/14 04:08:01;;;;;;;24.15;17.52;;;15.60;22.50;;;;;;5059793;28;20024;-40
2022/04/14 04:10:27;;;;;;;28.20;19.65;;;15.60;22.90;;;;;;5054103;28;20135;-40
2022/04/14 04:12:53;;;;;;;30.45;20.63;;;15.60;22.80;;;;;;5070364;28;20379;-41
2022/04/14 04:15:18;;;;;;;30.23;20.45;;;15.60;22.80;;;;;;5050395;28;20152;-40
2022/04/14 04:17:46;;;;;;;29.98;21.80;;;15.60;22.70;;;;;;5033365;28;20100;-40
2022/04/14 04:20:12;;;;;;;31.27;19.77;;;15.60;22.80;;;;;;5056470;28;20367;-40
2022/04/14 04:22:37;;;;;;;28.98;20.10;;;15.60;22.80;;;;;;5058431;28;20091;-40
2022/04/14 04:25:03;;;;;;;30.05;21.52;;;15.60;23.30;;;;;;5051896;28;20039;-41
2022/04/14 04:27:30;;;;;;;30.05;21.45;;;15.50;23.20;;;;;;5059373;28;20435;-40
2022/04/14 04:29:55;;;;;;;31.00;21.67;;;15.50;23.40;;;;;;5052440;28;20036;-41
2022/04/14 04:32:21;;;;;;;27.88;20.80;;;15.50;23.60;;;;;;5051060;28;20027;-40
2022/04/14 04:34:47;;;;;;;27.85;20.45;;;15.40;23.50;;;;;;5033232;28;20120;-40
2022/04/14 04:37:13;;;;;;;27.33;19.08;;;15.40;23.30;;;;;;5059444;28;20032;-40
2022/04/14 04:39:38;;;;;;;30.40;21.27;;;15.30;23.80;;;;;;5055799;28;20339;-40
2022/04/14 04:42:04;;;;;;;28.25;19.27;;;15.40;23.80;;;;;;5067183;28;20097;-40
2022/04/14 04:44:30;;;;;;;25.80;19.73;;;15.40;23.50;;;;;;5034154;28;20067;-41
2022/04/14 04:46:55;;;;;;;28.20;19.02;;;15.30;23.60;;;;;;5054143;28;20503;-41
2022/04/14 04:49:21;;;;;;;26.52;19.83;;;15.30;23.90;;;;;;5052254;28;20025;-40
2022/04/14 04:51:47;;;;;;;26.30;19.88;;;15.30;24.00;;;;;;5041729;28;20459;-40
2022/04/14 04:54:12;;;;;;;27.02;20.15;;;15.30;24.20;;;;;;5058736;28;20069;-41
2022/04/14 04:56:38;;;;;;;30.40;20.58;;;15.30;24.30;;;;;;5074294;28;20369;-41
2022/04/14 04:59:04;;;;;;;28.73;20.50;;;15.20;24.30;;;;;;5075904;28;20099;-41
2022/04/14 05:01:29;;;;;;;32.47;20.63;;;15.20;24.40;;;;;;5074807;28;20445;-41
2022/04/14 05:03:55;;;;;;;31.40;19.35;;;15.20;24.60;;;;;;5055401;28;20029;-40
2022/04/14 05:06:20;;;;;;;25.40;19.67;;;15.30;24.10;;;;;;5055543;28;20413;-40
2022/04/14 05:08:47;;;;;;;29.27;19.63;;;15.20;24.40;;;;;;5054954;28;20494;-40
2022/04/14 05:11:13;;;;;;;32.28;20.77;;;15.30;24.30;;;;;;5055408;28;20071;-40
2022/04/14 05:13:39;;;;;;;27.65;19.40;;;15.30;24.30;;;;;;5067795;28;20483;-40
2022/04/14 05:16:06;;;;;;;27.30;19.75;;;15.20;24.30;;;;;;5057426;28;20021;-40
2022/04/14 05:18:35;;;;;;;27.75;19.10;;;15.20;24.50;;;;;;5057789;28;20087;-40
2022/04/14 05:21:01;;;;;;;32.13;19.45;;;15.30;24.30;;;;;;5054258;28;20481;-40
2022/04/14 05:23:27;;;;;;;24.27;18.52;;;15.30;24.10;;;;;;5069148;28;20060;-41
2022/04/14 05:25:52;;;;;;;29.83;19.70;;;15.30;24.00;;;;;;5075408;28;20063;-41
2022/04/14 05:28:18;;;;;;;28.58;19.60;;;15.30;24.70;;;;;;5060013;28;20027;-40
2022/04/14 05:30:44;;;;;;;29.55;19.25;;;15.20;24.40;;;;;;5055168;28;20401;-40
2022/04/14 05:33:10;;;;;;;28.65;20.60;;;15.30;24.20;;;;;;5048150;28;20036;-40
2022/04/14 05:35:40;;;;;;;31.65;19.58;;;15.30;24.10;;;;;;5075019;28;20027;-40
2022/04/14 05:38:06;;;;;;;29.10;20.00;;;15.40;24.20;;;;;;5061707;28;20033;-40
2022/04/14 05:40:33;;;;;;;28.83;19.33;;;15.40;23.50;;;;;;5056299;28;20044;-40
2022/04/14 05:42:58;;;;;;;26.98;19.83;;;15.50;23.70;;;;;;5064078;28;20021;-40
2022/04/14 05:45:24;;;;;;;28.98;19.50;;;15.50;23.80;;;;;;5074787;28;20040;-40
2022/04/14 05:47:50;;;;;;;29.63;20.33;;;15.50;24.10;;;;;;5073075;28;20469;-40
2022/04/14 05:50:15;;;;;;;25.73;19.83;;;15.50;24.10;;;;;;5075017;28;20037;-40
2022/04/14 06:02:47;;;;;;;25.98;19.50;;;15.60;24.40;;;;;;5037796;28;20040;-39
2022/04/14 06:05:13;;;;;;;27.55;20.50;;;15.60;23.70;;;;;;5054468;28;20029;-39
2022/04/14 06:07:39;;;;;;;32.00;21.42;;;15.60;23.70;;;;;;5035885;28;20032;-40
2022/04/14 06:10:05;;;;;;;27.75;19.90;;;15.70;23.60;;;;;;5074291;28;20541;-40
2022/04/14 06:12:31;;;;;;;29.77;20.17;;;15.70;23.50;;;;;;5073062;28;20470;-40
2022/04/14 06:14:56;;;;;;;36.80;22.20;;;15.70;22.80;;;;;;5054164;28;20036;-39
2022/04/14 06:17:22;;;;;;;29.27;20.42;;;15.70;22.50;;;;;;5054459;28;20139;-39
2022/04/14 06:19:48;;;;;;;35.03;21.40;;;15.80;22.90;;;;;;5070798;28;20483;-40
2022/04/14 06:22:13;;;;;;;37.53;21.40;;;15.70;22.60;;;;;;5074387;28;20017;-40
2022/04/14 06:24:39;;;;;;;29.13;20.05;;;15.80;22.60;;;;;;5055464;28;20040;-40
2022/04/14 06:27:06;;;;;;;34.55;22.00;;;15.80;22.00;;;;;;5054100;28;20029;-40
2022/04/14 06:29:31;;;;;;;35.40;21.88;;;15.80;22.40;;;;;;5052278;28;20017;-40
2022/04/14 06:31:58;;;;;;;30.88;20.60;;;15.80;22.30;;;;;;5069555;28;20024;-40
2022/04/14 06:34:24;;;;;;;35.33;20.38;;;15.90;22.70;;;;;;5044559;28;20107;-40
2022/04/14 06:36:49;;;;;;;37.13;23.13;;;15.90;22.90;;;;;;5046210;28;20025;-40
2022/04/14 06:39:15;;;;;;;35.65;21.30;;;16.00;22.60;;;;;;5059114;28;20031;-40
2022/04/14 06:41:41;;;;;;;33.03;22.65;;;16.00;22.30;;;;;;5053309;28;20044;-40
2022/04/14 06:44:07;;;;;;;38.50;24.77;;;16.00;23.00;;;;;;5062676;28;20099;-40
2022/04/14 06:46:33;;;;;;;38.90;25.58;;;16.10;22.00;;;;;;5065900;28;20028;-41
2022/04/14 06:48:58;;;;;;;33.30;24.92;;;16.00;23.00;;;;;;5058798;28;20305;-40
2022/04/14 06:51:24;;;;;;;38.88;24.73;;;16.00;22.70;;;;;;5051849;28;20053;-40
2022/04/14 06:53:50;;;;;;;37.35;24.55;;;16.10;22.70;;;;;;5054963;28;20051;-40
2022/04/14 06:56:15;;;;;;;34.08;24.52;;;16.10;23.00;;;;;;5059927;28;20425;-40
2022/04/14 06:58:42;;;;;;;37.15;25.05;;;16.10;23.90;;;;;;5055074;28;20021;-41
2022/04/14 07:01:08;;;;;;;41.17;26.58;;;16.10;23.50;;;;;;5069929;28;20045;-40
2022/04/14 07:03:34;;;;;;;35.38;24.90;;;16.10;22.90;;;;;;5065783;28;20021;-40
2022/04/14 07:06:00;;;;;;;36.08;25.33;;;16.10;22.70;;;;;;5058879;28;20496;-40
2022/04/14 07:08:27;;;;;;;38.90;25.65;;;16.10;22.80;;;;;;5063883;28;20096;-41
2022/04/14 07:10:54;;;;;;;49.40;29.58;;;16.10;23.90;;;;;;5053344;28;20454;-40
2022/04/14 07:13:19;;;;;;;42.15;28.38;;;16.20;24.00;;;;;;5053070;28;20515;-40
2022/04/14 07:15:45;;;;;;;44.22;28.02;;;16.30;22.90;;;;;;5063239;28;20103;-40
2022/04/14 07:18:11;;;;;;;37.63;25.67;;;16.20;23.20;;;;;;5055594;28;20032;-40
2022/04/14 07:20:37;;;;;;;32.83;26.83;;;16.30;23.70;;;;;;5052378;28;20061;-40
2022/04/14 07:23:05;;;;;;;33.60;26.77;;;16.30;23.50;;;;;;5051195;28;20036;-42
2022/04/14 07:25:33;;;;;;;38.08;27.02;;;16.30;23.10;;;;;;5068518;28;20490;-41
2022/04/14 07:27:59;;;;;;;38.70;27.05;;;16.40;23.20;;;;;;5066609;28;20053;-40
2022/04/14 07:30:26;;;;;;;36.28;25.42;;;16.40;23.40;;;;;;5043790;28;20037;-40
2022/04/14 07:32:53;;;;;;;35.50;26.17;;;16.40;22.50;;;;;;5070348;28;20069;-40
2022/04/14 07:35:25;;;;;;;36.17;25.42;;;16.50;23.20;;;;;;5070952;28;20044;-40
2022/04/14 07:37:51;;;;;;;36.03;25.13;;;16.40;22.10;;;;;;5070233;28;20024;-41
2022/04/14 07:40:18;;;;;;;36.55;25.48;;;16.50;22.40;;;;;;5059898;28;20193;-40
2022/04/14 07:42:45;;;;;;;33.13;26.02;;;16.60;21.80;;;;;;5061491;28;20028;-40
2022/04/14 07:45:13;;;;;;;34.40;24.48;;;16.60;21.50;;;;;;5043920;28;20077;-40
2022/04/14 07:47:42;;;;;;;35.00;25.15;;;16.60;22.10;;;;;;5058409;28;20029;-40
2022/04/14 07:50:09;;;;;;;40.60;25.10;;;16.70;21.40;;;;;;5055300;28;20037;-40
2022/04/14 07:52:44;;;;;;;36.90;25.30;;;16.70;21.40;;;;;;5044654;28;20083;-40
2022/04/14 07:55:09;;;;;;;34.50;23.52;;;16.80;22.60;;;;;;5059075;28;20021;-40
2022/04/14 07:57:35;;;;;;;32.30;24.50;;;16.80;21.00;;;;;;5046562;28;20110;-41
2022/04/14 08:00:01;;;;;;;35.13;25.98;;;16.80;21.70;;;;;;5041505;28;20457;-41
2022/04/14 08:02:26;;;;;;;39.47;25.60;;;16.80;21.10;;;;;;5048659;28;20478;-41
2022/04/14 08:04:52;;;;;;;42.60;25.00;;;16.90;20.90;;;;;;5055467;28;20102;-41
2022/04/14 08:07:17;;;;;;;34.42;23.63;;;16.90;20.70;;;;;;5038910;28;20029;-41
2022/04/14 08:09:43;;;;;;;49.58;35.20;;;16.90;20.80;;;;;;5049994;28;20029;-40
2022/04/14 08:12:09;;;;;;;39.15;24.83;;;17.00;20.80;;;;;;5054152;28;20086;-40
2022/04/14 08:14:35;;;;;;;37.03;24.50;;;17.00;20.50;;;;;;5061007;28;20107;-39
2022/04/14 08:17:04;;;;;;;33.80;22.85;;;17.10;20.40;;;;;;5065970;28;20128;-38
2022/04/14 08:19:31;;;;;;;36.42;23.80;;;17.10;20.10;;;;;;5056044;28;20032;-40
2022/04/14 08:21:56;;;;;;;73.65;26.13;;;17.20;20.30;;;;;;5060555;28;20083;-43
2022/04/14 08:24:24;;;;;;;47.03;24.88;;;17.30;19.70;;;;;;5039794;28;20036;-42
2022/04/14 08:26:52;;;;;;;50.88;25.80;;;17.30;19.80;;;;;;5040886;28;20025;-47
2022/04/14 08:29:48;;;;;;;47.70;26.48;;;17.40;19.40;;;;;;5033909;28;20074;-41
2022/04/14 08:32:14;;;;;;;39.47;25.88;;;17.40;19.00;;;;;;5051082;28;20025;-42
2022/04/14 08:34:40;;;;;;;34.80;24.92;;;17.40;19.60;;;;;;5054410;28;20028;-43
2022/04/14 08:37:06;;;;;;;51.85;24.98;;;17.40;19.90;;;;;;5051171;28;20098;-42
2022/04/14 08:39:32;;;;;;;45.22;23.83;;;17.50;19.50;;;;;;5049488;28;20037;-43
2022/04/14 08:42:07;;;;;;;38.05;24.80;;;17.60;19.50;;;;;;5051294;28;20098;-42
2022/04/14 08:44:38;;;;;;;38.92;22.75;;;17.70;17.80;;;;;;5052779;28;20092;-42
2022/04/14 08:47:06;;;;;;;32.83;21.63;;;17.70;18.80;;;;;;5056084;28;20458;-42
2022/04/14 08:49:32;;;;;;;44.10;24.67;;;17.80;17.50;;;;;;5040591;28;20043;-43
2022/04/14 08:51:58;;;;;;;40.25;23.15;;;17.80;18.20;;;;;;5068538;28;20040;-43
2022/04/14 08:54:24;;;;;;;33.90;23.25;;;17.90;19.70;;;;;;5059794;28;20488;-42
2022/04/14 08:56:51;;;;;;;37.97;23.25;;;17.80;18.00;;;;;;5070407;28;20017;-42
2022/04/14 08:59:18;;;;;;;37.65;22.92;;;18.00;17.40;;;;;;5025758;28;20116;-44
2022/04/14 09:01:44;;;;;;;37.33;23.33;;;18.00;16.80;;;;;;5058285;28;20119;-42
2022/04/14 09:04:10;;;;;;;38.95;22.50;;;18.00;16.80;;;;;;5055103;28;20025;-42
2022/04/14 09:06:36;;;;;;;37.30;23.38;;;18.00;16.50;;;;;;5054239;28;20025;-43
2022/04/14 09:09:02;;;;;;;38.42;23.58;;;18.00;16.00;;;;;;5053010;28;20036;-42
2022/04/14 09:11:29;;;;;;;38.30;22.13;;;18.10;16.80;;;;;;5037623;28;20028;-43
2022/04/14 09:13:55;;;;;;;37.53;22.80;;;18.10;17.20;;;;;;5050416;28;20021;-41
2022/04/14 09:16:22;;;;;;;35.72;22.25;;;18.10;17.20;;;;;;5051694;28;20142;-46
2022/04/14 09:18:48;;;;;;;39.03;24.65;;;18.30;16.50;;;;;;5049955;28;20029;-42
2022/04/14 09:21:15;;;;;;;38.28;22.05;;;18.40;21.50;;;;;;5063524;28;20039;-44
2022/04/14 09:23:49;;;;;;;38.22;23.65;;;17.10;24.90;;;;;;5069193;28;20025;-42
2022/04/14 09:26:22;;;;;;;41.80;24.17;;;18.40;15.50;;;;;;5051348;28;20524;-42
2022/04/14 09:29:32;;;;;;;40.05;24.08;;;18.40;16.20;;;;;;5050913;28;20100;-41
2022/04/14 09:31:57;;;;;;;36.97;24.65;;;18.50;15.50;;;;;;5026224;28;20033;-41
2022/04/14 09:34:51;;;;;;;41.65;25.77;;;18.50;16.00;;;;;;5039943;28;20028;-42
2022/04/14 09:37:18;;;;;;;41.53;25.40;;;18.60;17.60;;;;;;5050123;28;20056;-43
2022/04/14 09:39:50;;;;;;;45.20;26.60;;;18.60;17.70;;;;;;5046081;28;20036;-42
2022/04/14 09:42:16;;;;;;;46.17;25.85;;;18.70;19.60;;;;;;5045697;28;20402;-43
2022/04/14 09:44:41;;;;;;;38.83;25.33;;;18.90;16.70;;;;;;5045541;28;20025;-42
2022/04/14 09:47:07;;;;;;;45.45;27.30;;;18.80;15.80;;;;;;5044552;28;20106;-42
2022/04/14 09:49:41;;;;;;;42.10;26.20;;;18.90;15.70;;;;;;5047232;28;20025;-43
2022/04/14 09:52:09;;;;;;;38.17;24.45;;;19.10;15.40;;;;;;5050476;28;20096;-43
2022/04/14 09:54:35;;;;;;;38.80;24.55;;;19.10;15.50;;;;;;5043620;28;20033;-47
2022/04/14 09:57:00;;;;;;;40.05;26.08;;;19.20;15.50;;;;;;5049341;28;20109;-45
2022/04/14 09:59:30;;;;;;;38.90;24.70;;;19.30;18.90;;;;;;5043794;28;20079;-43
2022/04/14 10:02:18;;;;;;;40.25;26.25;;;19.30;14.80;;;;;;5049025;28;20159;-43
2022/04/14 10:04:48;;;;;;;43.28;25.67;;;19.40;14.80;;;;;;5040178;28;20067;-44
2022/04/14 10:07:19;;;;;;;41.50;27.05;;;19.50;14.40;;;;;;5052420;28;20063;-43
2022/04/14 10:09:50;;;;;;;41.92;24.92;;;19.60;13.80;;;;;;5050594;28;20033;-45
2022/04/14 10:12:19;;;;;;;42.78;24.52;;;19.70;13.40;;;;;;5052134;28;20032;-44
2022/04/14 10:14:57;;;;;;;39.72;23.98;;;19.60;13.90;;;;;;5041647;28;20104;-44
2022/04/14 10:17:24;;;;;;;38.53;24.40;;;19.80;13.20;;;;;;5050640;28;20482;-43
2022/04/14 10:19:51;;;;;;;38.63;23.58;;;19.80;13.20;;;;;;5041188;28;20116;-43
2022/04/14 10:22:18;;;;;;;42.85;24.80;;;20.00;12.70;;;;;;5045745;28;20478;-45
2022/04/14 10:24:44;;;;;;;41.58;24.60;;;19.90;12.30;;;;;;5049162;28;20032;-42
2022/04/14 10:27:11;;;;;;;41.65;23.38;;;20.00;12.30;;;;;;5046518;28;22067;-43
2022/04/14 10:29:39;;;;;;;40.97;23.88;;;20.00;12.20;;;;;;5047399;28;20060;-43
2022/04/14 10:32:05;;;;;;;37.25;23.77;;;20.20;11.40;;;;;;5047717;28;20033;-44
2022/04/14 10:34:32;;;;;;;41.00;23.80;;;20.30;10.90;;;;;;5045939;28;20029;-42
2022/04/14 10:37:00;;;;;;;36.10;23.67;;;20.30;11.10;;;;;;5047752;28;20032;-42
2022/04/14 10:39:29;;;;;;;37.13;23.15;;;20.50;10.60;;;;;;5040680;28;20044;-42
2022/04/14 10:41:56;;;;;;;36.50;21.90;;;;;;;;;;5045744;28;20112;-42
2022/04/14 10:44:23;;;;;;;39.55;22.88;;;20.60;9.80;;;;;;5033945;28;20017;-42
2022/04/14 10:46:51;;;;;;;34.95;21.48;;;20.60;9.70;;;;;;5043954;28;21712;-43
2022/04/14 10:49:21;;;;;;;39.63;21.92;;;20.50;9.70;;;;;;5050510;28;20057;-43
2022/04/14 10:55:38;;;;;;;34.40;18.75;;;20.70;7.50;;;;;;5027385;28;20064;-43
2022/04/14 10:58:04;;;;;;;;;;;20.70;8.10;;;;;;5034252;28;20034;-45
2022/04/14 11:00:37;;;;;;;32.22;20.85;;;20.60;6.70;;;;;;5062789;28;19917;-43
2022/04/14 11:03:11;;;;;;;33.88;20.13;;;20.90;10.90;;;;;;5071501;28;20074;-43
2022/04/14 11:05:48;;;;;;;31.67;20.33;;;20.90;8.80;;;;;;5068838;28;20066;-46
2022/04/14 11:08:24;;;;;;;40.45;23.25;;;21.10;6.90;;;;;;5065699;28;20103;-43
2022/04/14 11:11:05;;;;;;;43.28;21.73;;;;;;;;;;5068727;28;20027;-43
2022/04/14 11:14:06;;;;;;;26.88;15.68;;;21.20;6.30;;;;;;5073190;28;20099;-44
2022/04/14 11:16:47;;;;;;;25.95;15.50;;;21.30;3.20;;;;;;5001268;28;20516;-43
2022/04/14 11:19:20;;;;;;;28.50;17.20;;;21.20;3.70;;;;;;5066660;28;20363;-42
2022/04/14 11:22:08;;;;;;;27.83;15.20;;;21.30;3.90;;;;;;5052982;28;20072;-42
2022/04/14 11:24:40;;;;;;;29.92;16.75;;;21.40;2.30;;;;;;5053121;28;20040;-43
2022/04/14 11:27:24;;;;;;;24.48;14.07;;;21.50;2.80;;;;;;5039979;28;20030;-42
2022/04/14 11:29:53;;;;;;;28.98;15.13;;;21.70;2.80;;;;;;5053909;28;20593;-42
2022/04/14 11:32:38;;;;;;;29.60;16.10;;;21.70;3.70;;;;;;5068496;28;20020;-46
2022/04/14 11:35:16;;;;;;;26.73;15.85;;;22.00;2.20;;;;;;5039701;28;20427;-43
2022/04/14 11:37:49;;;;;;;23.70;13.63;;;22.30;1.80;;;;;;5072933;28;20062;-41
2022/04/14 11:40:22;;;;;;;23.58;14.15;;;22.30;2.10;;;;;;5050317;28;20209;-42
2022/04/14 11:42:51;;;;;;;24.35;12.77;;;22.40;2.10;;;;;;5071140;28;20032;-42
2022/04/14 11:45:23;;;;;;;21.75;12.07;;;22.40;1.10;;;;;;5070890;28;20107;-42
2022/04/14 11:47:52;;;;;;;16.25;9.52;;;22.40;1.80;;;;;;5065388;28;20063;-42
2022/04/14 11:50:25;;;;;;;20.52;11.38;;;22.50;1.00;;;;;;5047326;28;20124;-43
2022/04/14 11:52:57;;;;;;;21.08;9.63;;;22.50;1.00;;;;;;5050178;28;20025;-42
2022/04/14 11:55:38;;;;;;;18.38;10.48;;;;;;;;;;5067729;28;20454;-43
2022/04/14 11:58:10;;;;;;;21.75;11.57;;;23.10;6.30;;;;;;5039900;28;20055;-42
2022/04/14 12:00:43;;;;;;;19.27;10.98;;;;;;;;;;5070587;28;20466;-43
2022/04/14 12:03:09;;;;;;;19.07;11.93;;;23.40;1.00;;;;;;5070025;28;20128;-42
2022/04/14 12:05:34;;;;;;;17.90;10.38;;;23.70;1.00;;;;;;5068382;28;20815;-42
2022/04/14 12:08:12;;;;;;;14.88;8.50;;;24.20;1.00;;;;;;5069983;28;20070;-42
2022/04/14 12:10:38;;;;;;;15.27;7.43;;;25.70;2.60;;;;;;5049954;28;20035;-42
2022/04/14 12:13:09;;;;;;;13.18;7.85;;;26.40;1.90;;;;;;5071935;28;20411;-43
2022/04/14 12:15:35;;;;;;;16.70;8.88;;;28.10;1.00;;;;;;5069576;28;20435;-43
2022/04/14 12:18:19;;;;;;;15.77;10.10;;;29.50;1.00;;;;;;5072190;28;20123;-41
2022/04/14 12:20:45;;;;;;;12.48;8.23;;;30.40;1.00;;;;;;5031476;28;20045;-42
2022/04/14 12:23:11;;;;;;;13.25;8.13;;;31.10;1.00;;;;;;5052754;28;20078;-42
2022/04/14 12:32:28;;;;;;;17.75;10.85;;;31.70;1.00;;;;;;5040037;28;20379;-40
2022/04/14 12:34:55;;;;;;;16.90;10.30;;;32.30;1.00;;;;;;5035589;28;20036;-40
2022/04/14 12:37:21;;;;;;;17.05;10.90;;;36.40;1.00;;;;;;5050731;28;20361;-40
2022/04/14 12:39:54;;;;;;;15.60;9.73;;;;;;;;;;5051497;28;20112;-40
2022/04/14 12:42:24;;;;;;;24.87;11.17;;;38.00;1.00;;;;;;5062601;28;20077;-41
2022/04/14 12:44:51;;;;;;;17.65;8.25;;;38.80;1.00;;;;;;5046290;28;20032;-40
2022/04/14 12:47:17;;;;;;;11.52;7.28;;;38.80;1.00;;;;;;5052271;28;20036;-40
2022/04/14 12:49:43;;;;;;;11.52;7.32;;;37.60;1.00;;;;;;5050490;28;20025;-39
2022/04/14 12:52:09;;;;;;;17.17;8.00;;;35.60;3.60;;;;;;5049829;28;20029;-39
2022/04/14 12:54:45;;;;;;;12.40;7.05;;;34.40;1.00;;;;;;5049980;28;20158;-40